sensor_id;sensor_type;location;lat;lon;timestamp;temperature;humidity
16200;DHT22;8207;52.494;4.654;2022-12-16T00:00:48;2.10;99.90
16200;DHT22;8207;52.494;4.654;2022-12-16T00:03:16;2.10;99.90
16200;DHT22;8207;52.494;4.654;2022-12-16T00:05:43;2.10;99.90
16200;DHT22;8207;52.494;4.654;2022-12-16T00:08:10;2.10;99.90
16200;DHT22;8207;52.494;4.654;2022-12-16T00:10:37;2.10;99.90
16200;DHT22;8207;52.494;4.654;2022-12-16T00:13:32;2.00;99.90
16200;DHT22;8207;52.494;4.654;2022-12-16T00:16:03;2.00;99.90
16200;DHT22;8207;52.494;4.654;2022-12-16T00:18:30;2.00;99.90
16200;DHT22;8207;52.494;4.654;2022-12-16T00:20:57;1.90;99.90
16200;DHT22;8207;52.494;4.654;2022-12-16T00:23:24;1.90;99.90
16200;DHT22;8207;52.494;4.654;2022-12-16T00:25:51;1.90;99.90
16200;DHT22;8207;52.494;4.654;2022-12-16T00:28:18;1.80;99.90
16200;DHT22;8207;52.494;4.654;2022-12-16T00:30:49;1.80;99.90
16200;DHT22;8207;52.494;4.654;2022-12-16T00:33:17;1.80;99.90
16200;DHT22;8207;52.494;4.654;2022-12-16T00:35:46;1.70;99.90
16200;DHT22;8207;52.494;4.654;2022-12-16T00:38:13;1.70;99.90
16200;DHT22;8207;52.494;4.654;2022-12-16T00:40:41;1.70;99.90
16200;DHT22;8207;52.494;4.654;2022-12-16T00:43:08;1.70;99.90
16200;DHT22;8207;52.494;4.654;2022-12-16T00:45:35;1.70;99.90
16200;DHT22;8207;52.494;4.654;2022-12-16T00:48:05;1.60;99.90
16200;DHT22;8207;52.494;4.654;2022-12-16T00:50:32;1.70;99.90
16200;DHT22;8207;52.494;4.654;2022-12-16T00:52:59;1.70;99.90
16200;DHT22;8207;52.494;4.654;2022-12-16T00:55:27;1.60;99.90
16200;DHT22;8207;52.494;4.654;2022-12-16T00:57:54;1.60;99.90
16200;DHT22;8207;52.494;4.654;2022-12-16T01:00:21;1.60;99.90
16200;DHT22;8207;52.494;4.654;2022-12-16T01:02:49;1.50;99.90
16200;DHT22;8207;52.494;4.654;2022-12-16T01:05:20;1.50;99.90
16200;DHT22;8207;52.494;4.654;2022-12-16T01:07:51;1.50;99.90
16200;DHT22;8207;52.494;4.654;2022-12-16T01:10:18;1.50;99.90
16200;DHT22;8207;52.494;4.654;2022-12-16T01:12:45;1.40;99.90
16200;DHT22;8207;52.494;4.654;2022-12-16T01:15:12;1.40;99.90
16200;DHT22;8207;52.494;4.654;2022-12-16T01:17:39;1.30;99.90
16200;DHT22;8207;52.494;4.654;2022-12-16T01:20:08;1.20;99.90
16200;DHT22;8207;52.494;4.654;2022-12-16T01:22:36;1.20;99.90
16200;DHT22;8207;52.494;4.654;2022-12-16T01:25:04;1.20;99.90
16200;DHT22;8207;52.494;4.654;2022-12-16T01:27:31;1.20;99.90
16200;DHT22;8207;52.494;4.654;2022-12-16T01:29:58;1.20;99.90
16200;DHT22;8207;52.494;4.654;2022-12-16T01:32:25;1.10;99.90
16200;DHT22;8207;52.494;4.654;2022-12-16T01:34:53;1.10;99.90
16200;DHT22;8207;52.494;4.654;2022-12-16T01:37:20;1.10;99.90
16200;DHT22;8207;52.494;4.654;2022-12-16T01:39:49;1.10;99.90
16200;DHT22;8207;52.494;4.654;2022-12-16T01:42:19;1.10;99.90
16200;DHT22;8207;52.494;4.654;2022-12-16T01:44:47;1.10;99.90
16200;DHT22;8207;52.494;4.654;2022-12-16T01:47:16;1.00;99.90
16200;DHT22;8207;52.494;4.654;2022-12-16T01:49:47;1.00;99.90
16200;DHT22;8207;52.494;4.654;2022-12-16T01:52:19;1.00;99.90
16200;DHT22;8207;52.494;4.654;2022-12-16T01:54:52;1.00;99.90
16200;DHT22;8207;52.494;4.654;2022-12-16T01:57:26;0.90;99.90
16200;DHT22;8207;52.494;4.654;2022-12-16T01:59:56;0.90;99.90
16200;DHT22;8207;52.494;4.654;2022-12-16T02:02:23;1.00;99.90
16200;DHT22;8207;52.494;4.654;2022-12-16T02:04:50;1.00;99.90
16200;DHT22;8207;52.494;4.654;2022-12-16T02:07:34;0.90;99.90
16200;DHT22;8207;52.494;4.654;2022-12-16T02:10:04;0.90;99.90
16200;DHT22;8207;52.494;4.654;2022-12-16T02:12:35;0.90;99.90
16200;DHT22;8207;52.494;4.654;2022-12-16T02:15:27;0.90;99.90
16200;DHT22;8207;52.494;4.654;2022-12-16T02:18:01;0.90;99.90
16200;DHT22;8207;52.494;4.654;2022-12-16T02:20:52;0.80;99.90
16200;DHT22;8207;52.494;4.654;2022-12-16T02:29:31;0.70;99.90
16200;DHT22;8207;52.494;4.654;2022-12-16T02:32:08;0.70;99.90
16200;DHT22;8207;52.494;4.654;2022-12-16T02:34:46;0.70;99.90
16200;DHT22;8207;52.494;4.654;2022-12-16T02:37:23;0.70;99.90
16200;DHT22;8207;52.494;4.654;2022-12-16T02:39:59;0.60;99.90
16200;DHT22;8207;52.494;4.654;2022-12-16T02:42:30;0.60;99.90
16200;DHT22;8207;52.494;4.654;2022-12-16T02:45:00;0.60;99.90
16200;DHT22;8207;52.494;4.654;2022-12-16T02:47:30;0.50;99.90
16200;DHT22;8207;52.494;4.654;2022-12-16T02:49:58;0.50;99.90
16200;DHT22;8207;52.494;4.654;2022-12-16T02:52:28;0.40;99.90
16200;DHT22;8207;52.494;4.654;2022-12-16T02:54:58;0.40;99.90
16200;DHT22;8207;52.494;4.654;2022-12-16T02:57:40;0.30;99.90
16200;DHT22;8207;52.494;4.654;2022-12-16T03:00:13;0.30;99.90
16200;DHT22;8207;52.494;4.654;2022-12-16T03:02:48;0.20;99.90
16200;DHT22;8207;52.494;4.654;2022-12-16T03:05:21;0.20;99.90
16200;DHT22;8207;52.494;4.654;2022-12-16T03:07:51;0.10;99.90
16200;DHT22;8207;52.494;4.654;2022-12-16T03:10:23;0.10;99.90
16200;DHT22;8207;52.494;4.654;2022-12-16T03:12:51;0.00;99.90
16200;DHT22;8207;52.494;4.654;2022-12-16T03:15:22;0.00;99.90
16200;DHT22;8207;52.494;4.654;2022-12-16T03:17:52;0.00;99.90
16200;DHT22;8207;52.494;4.654;2022-12-16T03:20:25;0.00;99.90
16200;DHT22;8207;52.494;4.654;2022-12-16T03:22:55;-0.10;99.90
16200;DHT22;8207;52.494;4.654;2022-12-16T03:25:25;-0.10;99.90
16200;DHT22;8207;52.494;4.654;2022-12-16T03:27:58;-0.20;99.90
16200;DHT22;8207;52.494;4.654;2022-12-16T03:30:31;-0.20;99.90
16200;DHT22;8207;52.494;4.654;2022-12-16T03:33:04;-0.30;99.90
16200;DHT22;8207;52.494;4.654;2022-12-16T03:35:35;-0.30;99.90
16200;DHT22;8207;52.494;4.654;2022-12-16T03:38:05;-0.30;99.90
16200;DHT22;8207;52.494;4.654;2022-12-16T03:40:33;-0.30;99.90
16200;DHT22;8207;52.494;4.654;2022-12-16T03:43:02;-0.40;99.90
16200;DHT22;8207;52.494;4.654;2022-12-16T03:45:35;-0.40;99.90
16200;DHT22;8207;52.494;4.654;2022-12-16T03:48:06;-0.50;99.90
16200;DHT22;8207;52.494;4.654;2022-12-16T03:50:34;-0.50;99.90
16200;DHT22;8207;52.494;4.654;2022-12-16T03:53:01;-0.50;99.90
16200;DHT22;8207;52.494;4.654;2022-12-16T03:55:29;-0.60;99.90
16200;DHT22;8207;52.494;4.654;2022-12-16T03:57:56;-0.60;99.90
16200;DHT22;8207;52.494;4.654;2022-12-16T04:00:23;-0.60;99.90
16200;DHT22;8207;52.494;4.654;2022-12-16T04:02:50;-0.60;99.90
16200;DHT22;8207;52.494;4.654;2022-12-16T04:05:18;-0.60;99.90
16200;DHT22;8207;52.494;4.654;2022-12-16T04:07:45;-0.60;99.90
16200;DHT22;8207;52.494;4.654;2022-12-16T04:10:12;-0.70;99.90
16200;DHT22;8207;52.494;4.654;2022-12-16T04:12:39;-0.70;99.90
16200;DHT22;8207;52.494;4.654;2022-12-16T04:15:24;-0.70;99.90
16200;DHT22;8207;52.494;4.654;2022-12-16T04:18:13;-0.70;99.90
16200;DHT22;8207;52.494;4.654;2022-12-16T04:21:00;-0.70;99.90
16200;DHT22;8207;52.494;4.654;2022-12-16T04:23:47;-0.80;99.90
16200;DHT22;8207;52.494;4.654;2022-12-16T04:26:32;-0.80;99.90
16200;DHT22;8207;52.494;4.654;2022-12-16T04:29:20;-0.80;99.90
16200;DHT22;8207;52.494;4.654;2022-12-16T04:31:47;-0.80;99.90
16200;DHT22;8207;52.494;4.654;2022-12-16T04:34:14;-0.80;99.90
16200;DHT22;8207;52.494;4.654;2022-12-16T04:36:56;-0.80;99.90
16200;DHT22;8207;52.494;4.654;2022-12-16T04:39:41;-0.80;99.90
16200;DHT22;8207;52.494;4.654;2022-12-16T04:42:25;-0.80;99.90
16200;DHT22;8207;52.494;4.654;2022-12-16T04:45:10;-0.80;99.90
16200;DHT22;8207;52.494;4.654;2022-12-16T04:47:54;-0.80;99.90
16200;DHT22;8207;52.494;4.654;2022-12-16T04:50:38;-0.80;99.90
16200;DHT22;8207;52.494;4.654;2022-12-16T04:53:24;-0.80;99.90
16200;DHT22;8207;52.494;4.654;2022-12-16T04:56:09;-0.80;99.90
16200;DHT22;8207;52.494;4.654;2022-12-16T04:59:08;-0.80;99.90
16200;DHT22;8207;52.494;4.654;2022-12-16T05:01:52;-0.70;99.90
16200;DHT22;8207;52.494;4.654;2022-12-16T05:04:37;-0.70;99.90
16200;DHT22;8207;52.494;4.654;2022-12-16T05:07:21;-0.70;99.90
16200;DHT22;8207;52.494;4.654;2022-12-16T05:10:10;-0.70;99.90
16200;DHT22;8207;52.494;4.654;2022-12-16T05:12:54;-0.60;99.90
16200;DHT22;8207;52.494;4.654;2022-12-16T05:15:39;-0.60;99.90
16200;DHT22;8207;52.494;4.654;2022-12-16T05:18:23;-0.60;99.90
16200;DHT22;8207;52.494;4.654;2022-12-16T05:21:08;-0.60;99.90
16200;DHT22;8207;52.494;4.654;2022-12-16T05:23:52;-0.50;99.90
16200;DHT22;8207;52.494;4.654;2022-12-16T05:26:38;-0.50;99.90
16200;DHT22;8207;52.494;4.654;2022-12-16T05:29:22;-0.50;99.90
16200;DHT22;8207;52.494;4.654;2022-12-16T05:32:06;-0.50;99.90
16200;DHT22;8207;52.494;4.654;2022-12-16T05:34:50;-0.50;99.90
16200;DHT22;8207;52.494;4.654;2022-12-16T05:37:34;-0.50;99.90
16200;DHT22;8207;52.494;4.654;2022-12-16T05:40:18;-0.50;99.90
16200;DHT22;8207;52.494;4.654;2022-12-16T05:43:04;-0.40;99.90
16200;DHT22;8207;52.494;4.654;2022-12-16T05:46:03;-0.40;99.90
16200;DHT22;8207;52.494;4.654;2022-12-16T05:48:47;-0.40;99.90
16200;DHT22;8207;52.494;4.654;2022-12-16T05:51:31;-0.40;99.90
16200;DHT22;8207;52.494;4.654;2022-12-16T05:54:16;-0.40;99.90
16200;DHT22;8207;52.494;4.654;2022-12-16T05:57:00;-0.30;99.90
16200;DHT22;8207;52.494;4.654;2022-12-16T05:59:46;-0.30;99.90
16200;DHT22;8207;52.494;4.654;2022-12-16T06:02:30;-0.30;99.90
16200;DHT22;8207;52.494;4.654;2022-12-16T06:05:14;-0.30;99.90
16200;DHT22;8207;52.494;4.654;2022-12-16T06:07:58;-0.30;99.90
16200;DHT22;8207;52.494;4.654;2022-12-16T06:10:42;-0.30;99.90
16200;DHT22;8207;52.494;4.654;2022-12-16T06:13:27;-0.30;99.90
16200;DHT22;8207;52.494;4.654;2022-12-16T06:16:12;-0.20;99.90
16200;DHT22;8207;52.494;4.654;2022-12-16T06:18:56;-0.20;99.90
16200;DHT22;8207;52.494;4.654;2022-12-16T06:21:40;-0.20;99.90
16200;DHT22;8207;52.494;4.654;2022-12-16T06:24:25;-0.20;99.90
16200;DHT22;8207;52.494;4.654;2022-12-16T06:27:09;-0.20;99.90
16200;DHT22;8207;52.494;4.654;2022-12-16T06:29:53;-0.20;99.90
16200;DHT22;8207;52.494;4.654;2022-12-16T06:32:38;-0.20;99.90
16200;DHT22;8207;52.494;4.654;2022-12-16T06:35:28;-0.20;99.90
16200;DHT22;8207;52.494;4.654;2022-12-16T06:38:12;-0.30;99.90
16200;DHT22;8207;52.494;4.654;2022-12-16T06:40:57;-0.30;99.90
16200;DHT22;8207;52.494;4.654;2022-12-16T06:43:41;-0.30;99.90
16200;DHT22;8207;52.494;4.654;2022-12-16T06:46:25;-0.30;99.90
16200;DHT22;8207;52.494;4.654;2022-12-16T06:49:10;-0.40;99.90
16200;DHT22;8207;52.494;4.654;2022-12-16T06:51:55;-0.40;99.90
16200;DHT22;8207;52.494;4.654;2022-12-16T06:54:39;-0.40;99.90
16200;DHT22;8207;52.494;4.654;2022-12-16T06:57:23;-0.40;99.90
16200;DHT22;8207;52.494;4.654;2022-12-16T07:00:08;-0.40;99.90
16200;DHT22;8207;52.494;4.654;2022-12-16T07:02:52;-0.50;99.90
16200;DHT22;8207;52.494;4.654;2022-12-16T07:05:38;-0.50;99.90
16200;DHT22;8207;52.494;4.654;2022-12-16T07:08:23;-0.60;99.90
16200;DHT22;8207;52.494;4.654;2022-12-16T07:11:07;-0.60;99.90
16200;DHT22;8207;52.494;4.654;2022-12-16T07:13:51;-0.70;99.90
16200;DHT22;8207;52.494;4.654;2022-12-16T07:16:36;-0.70;99.90
16200;DHT22;8207;52.494;4.654;2022-12-16T07:19:20;-0.70;99.90
16200;DHT22;8207;52.494;4.654;2022-12-16T07:22:05;-0.80;99.90
16200;DHT22;8207;52.494;4.654;2022-12-16T07:24:55;-0.80;99.90
16200;DHT22;8207;52.494;4.654;2022-12-16T07:27:44;-0.80;99.90
16200;DHT22;8207;52.494;4.654;2022-12-16T07:30:28;-0.80;99.90
16200;DHT22;8207;52.494;4.654;2022-12-16T07:33:12;-0.90;99.90
16200;DHT22;8207;52.494;4.654;2022-12-16T07:35:57;-0.90;99.90
16200;DHT22;8207;52.494;4.654;2022-12-16T07:38:42;-0.90;99.90
16200;DHT22;8207;52.494;4.654;2022-12-16T07:41:26;-1.00;99.90
16200;DHT22;8207;52.494;4.654;2022-12-16T07:44:10;-0.90;99.90
16200;DHT22;8207;52.494;4.654;2022-12-16T07:46:55;-1.00;99.90
16200;DHT22;8207;52.494;4.654;2022-12-16T07:49:39;-1.00;99.90
16200;DHT22;8207;52.494;4.654;2022-12-16T07:52:23;-1.00;99.90
16200;DHT22;8207;52.494;4.654;2022-12-16T07:55:09;-1.00;99.90
16200;DHT22;8207;52.494;4.654;2022-12-16T07:57:53;-1.10;99.90
16200;DHT22;8207;52.494;4.654;2022-12-16T08:00:38;-1.10;99.90
16200;DHT22;8207;52.494;4.654;2022-12-16T08:03:22;-1.10;99.90
16200;DHT22;8207;52.494;4.654;2022-12-16T08:06:06;-1.10;99.90
16200;DHT22;8207;52.494;4.654;2022-12-16T08:08:51;-1.10;99.90
16200;DHT22;8207;52.494;4.654;2022-12-16T08:11:37;-1.10;99.90
16200;DHT22;8207;52.494;4.654;2022-12-16T08:14:21;-1.10;99.90
16200;DHT22;8207;52.494;4.654;2022-12-16T08:17:05;-1.00;99.90
16200;DHT22;8207;52.494;4.654;2022-12-16T08:19:49;-1.00;99.90
16200;DHT22;8207;52.494;4.654;2022-12-16T08:22:34;-1.00;99.90
16200;DHT22;8207;52.494;4.654;2022-12-16T08:25:18;-0.90;99.90
16200;DHT22;8207;52.494;4.654;2022-12-16T08:28:04;-0.90;99.90
16200;DHT22;8207;52.494;4.654;2022-12-16T08:30:48;-0.90;99.90
16200;DHT22;8207;52.494;4.654;2022-12-16T08:33:33;-0.80;99.90
16200;DHT22;8207;52.494;4.654;2022-12-16T08:36:17;-0.80;99.90
16200;DHT22;8207;52.494;4.654;2022-12-16T08:39:02;-0.70;99.90
16200;DHT22;8207;52.494;4.654;2022-12-16T08:41:46;-0.70;99.90
16200;DHT22;8207;52.494;4.654;2022-12-16T08:44:32;-0.80;99.90
16200;DHT22;8207;52.494;4.654;2022-12-16T08:47:16;-0.80;99.90
16200;DHT22;8207;52.494;4.654;2022-12-16T08:50:01;-0.70;99.90
16200;DHT22;8207;52.494;4.654;2022-12-16T08:52:45;-0.70;99.90
16200;DHT22;8207;52.494;4.654;2022-12-16T08:55:29;-0.70;99.90
16200;DHT22;8207;52.494;4.654;2022-12-16T08:58:13;-0.70;99.90
16200;DHT22;8207;52.494;4.654;2022-12-16T09:00:59;-0.60;99.90
16200;DHT22;8207;52.494;4.654;2022-12-16T09:03:43;-0.70;99.90
16200;DHT22;8207;52.494;4.654;2022-12-16T09:06:28;-0.60;99.90
16200;DHT22;8207;52.494;4.654;2022-12-16T09:09:12;-0.60;99.90
16200;DHT22;8207;52.494;4.654;2022-12-16T09:11:57;-0.50;99.90
16200;DHT22;8207;52.494;4.654;2022-12-16T09:14:41;-0.50;99.90
16200;DHT22;8207;52.494;4.654;2022-12-16T09:17:27;-0.40;99.90
16200;DHT22;8207;52.494;4.654;2022-12-16T09:20:11;-0.40;99.90
16200;DHT22;8207;52.494;4.654;2022-12-16T09:22:55;-0.30;99.90
16200;DHT22;8207;52.494;4.654;2022-12-16T09:25:39;-0.20;99.90
16200;DHT22;8207;52.494;4.654;2022-12-16T09:28:23;-0.10;99.90
16200;DHT22;8207;52.494;4.654;2022-12-16T09:31:08;0.00;99.90
16200;DHT22;8207;52.494;4.654;2022-12-16T09:33:53;0.10;99.90
16200;DHT22;8207;52.494;4.654;2022-12-16T09:36:37;0.10;99.90
16200;DHT22;8207;52.494;4.654;2022-12-16T09:39:21;0.20;99.90
16200;DHT22;8207;52.494;4.654;2022-12-16T09:42:16;0.20;99.90
16200;DHT22;8207;52.494;4.654;2022-12-16T09:45:13;0.20;99.90
16200;DHT22;8207;52.494;4.654;2022-12-16T09:48:05;0.20;99.90
16200;DHT22;8207;52.494;4.654;2022-12-16T09:50:56;0.20;99.90
16200;DHT22;8207;52.494;4.654;2022-12-16T09:53:41;0.30;99.90
16200;DHT22;8207;52.494;4.654;2022-12-16T09:56:30;0.30;99.90
16200;DHT22;8207;52.494;4.654;2022-12-16T09:59:21;0.40;99.90
16200;DHT22;8207;52.494;4.654;2022-12-16T10:02:10;0.50;99.90
16200;DHT22;8207;52.494;4.654;2022-12-16T10:04:55;0.70;99.90
16200;DHT22;8207;52.494;4.654;2022-12-16T10:07:46;0.80;99.90
16200;DHT22;8207;52.494;4.654;2022-12-16T10:10:43;1.00;99.90
16200;DHT22;8207;52.494;4.654;2022-12-16T10:13:34;1.10;99.90
16200;DHT22;8207;52.494;4.654;2022-12-16T10:16:25;1.20;99.90
16200;DHT22;8207;52.494;4.654;2022-12-16T10:19:27;1.40;99.90
16200;DHT22;8207;52.494;4.654;2022-12-16T10:22:19;1.50;99.90
16200;DHT22;8207;52.494;4.654;2022-12-16T10:25:11;1.60;99.90
16200;DHT22;8207;52.494;4.654;2022-12-16T10:28:01;1.70;99.90
16200;DHT22;8207;52.494;4.654;2022-12-16T10:30:49;1.80;99.90
16200;DHT22;8207;52.494;4.654;2022-12-16T10:33:33;1.80;99.90
16200;DHT22;8207;52.494;4.654;2022-12-16T10:36:20;1.90;99.90
16200;DHT22;8207;52.494;4.654;2022-12-16T10:39:14;2.00;99.90
16200;DHT22;8207;52.494;4.654;2022-12-16T10:42:02;2.00;99.90
16200;DHT22;8207;52.494;4.654;2022-12-16T10:44:49;2.00;99.90
16200;DHT22;8207;52.494;4.654;2022-12-16T10:47:35;2.10;99.90
16200;DHT22;8207;52.494;4.654;2022-12-16T10:50:19;2.20;99.90
16200;DHT22;8207;52.494;4.654;2022-12-16T10:53:11;2.20;99.90
16200;DHT22;8207;52.494;4.654;2022-12-16T10:56:06;2.20;99.90
16200;DHT22;8207;52.494;4.654;2022-12-16T10:59:00;2.30;99.90
16200;DHT22;8207;52.494;4.654;2022-12-16T11:01:56;2.40;99.90
16200;DHT22;8207;52.494;4.654;2022-12-16T11:04:40;2.40;99.90
16200;DHT22;8207;52.494;4.654;2022-12-16T11:07:33;2.40;99.90
16200;DHT22;8207;52.494;4.654;2022-12-16T11:10:29;2.50;99.90
16200;DHT22;8207;52.494;4.654;2022-12-16T11:13:23;2.50;99.90
16200;DHT22;8207;52.494;4.654;2022-12-16T11:16:12;2.60;99.90
16200;DHT22;8207;52.494;4.654;2022-12-16T11:18:57;2.60;99.90
16200;DHT22;8207;52.494;4.654;2022-12-16T11:21:41;2.70;99.90
16200;DHT22;8207;52.494;4.654;2022-12-16T11:24:26;2.70;99.90
16200;DHT22;8207;52.494;4.654;2022-12-16T11:27:20;2.70;99.90
16200;DHT22;8207;52.494;4.654;2022-12-16T11:30:16;2.80;99.90
16200;DHT22;8207;52.494;4.654;2022-12-16T11:33:16;2.90;99.90
16200;DHT22;8207;52.494;4.654;2022-12-16T11:36:08;3.00;99.90
16200;DHT22;8207;52.494;4.654;2022-12-16T11:38:53;3.10;99.90
16200;DHT22;8207;52.494;4.654;2022-12-16T11:41:40;3.20;99.90
16200;DHT22;8207;52.494;4.654;2022-12-16T11:44:28;3.20;99.90
16200;DHT22;8207;52.494;4.654;2022-12-16T11:47:25;3.30;99.90
16200;DHT22;8207;52.494;4.654;2022-12-16T11:50:21;3.30;99.90
16200;DHT22;8207;52.494;4.654;2022-12-16T11:53:17;3.40;99.90
16200;DHT22;8207;52.494;4.654;2022-12-16T11:56:04;3.50;99.90
16200;DHT22;8207;52.494;4.654;2022-12-16T11:58:51;3.50;99.90
16200;DHT22;8207;52.494;4.654;2022-12-16T12:01:43;3.60;99.90
16200;DHT22;8207;52.494;4.654;2022-12-16T12:04:29;3.60;99.90
16200;DHT22;8207;52.494;4.654;2022-12-16T12:07:22;3.60;99.90
16200;DHT22;8207;52.494;4.654;2022-12-16T12:10:43;3.70;99.90
16200;DHT22;8207;52.494;4.654;2022-12-16T12:13:49;3.70;99.90
16200;DHT22;8207;52.494;4.654;2022-12-16T12:16:47;3.70;99.90
16200;DHT22;8207;52.494;4.654;2022-12-16T12:19:43;3.70;99.90
16200;DHT22;8207;52.494;4.654;2022-12-16T12:22:34;3.70;99.90
16200;DHT22;8207;52.494;4.654;2022-12-16T12:25:23;3.70;99.90
16200;DHT22;8207;52.494;4.654;2022-12-16T12:28:22;3.70;99.90
16200;DHT22;8207;52.494;4.654;2022-12-16T12:31:20;3.70;99.90
16200;DHT22;8207;52.494;4.654;2022-12-16T12:34:13;3.70;99.90
16200;DHT22;8207;52.494;4.654;2022-12-16T12:37:06;3.80;99.90
16200;DHT22;8207;52.494;4.654;2022-12-16T12:39:58;3.80;99.90
16200;DHT22;8207;52.494;4.654;2022-12-16T12:42:45;3.80;99.90
16200;DHT22;8207;52.494;4.654;2022-12-16T12:45:48;3.90;99.90
16200;DHT22;8207;52.494;4.654;2022-12-16T12:48:38;3.80;99.90
16200;DHT22;8207;52.494;4.654;2022-12-16T12:51:28;3.80;99.90
16200;DHT22;8207;52.494;4.654;2022-12-16T12:54:18;3.80;99.90
16200;DHT22;8207;52.494;4.654;2022-12-16T12:57:08;3.80;99.90
16200;DHT22;8207;52.494;4.654;2022-12-16T12:59:58;3.90;99.90
16200;DHT22;8207;52.494;4.654;2022-12-16T13:02:47;3.90;99.90
16200;DHT22;8207;52.494;4.654;2022-12-16T13:05:37;3.90;99.90
16200;DHT22;8207;52.494;4.654;2022-12-16T13:08:41;3.90;99.90
16200;DHT22;8207;52.494;4.654;2022-12-16T13:11:26;3.90;99.90
16200;DHT22;8207;52.494;4.654;2022-12-16T13:14:53;3.90;99.90
16200;DHT22;8207;52.494;4.654;2022-12-16T13:18:12;3.90;99.90
16200;DHT22;8207;52.494;4.654;2022-12-16T13:20:57;3.90;99.90
16200;DHT22;8207;52.494;4.654;2022-12-16T13:23:41;3.90;99.90
16200;DHT22;8207;52.494;4.654;2022-12-16T13:26:28;3.90;99.90
16200;DHT22;8207;52.494;4.654;2022-12-16T13:29:29;3.80;99.90
16200;DHT22;8207;52.494;4.654;2022-12-16T13:32:22;3.90;99.90
16200;DHT22;8207;52.494;4.654;2022-12-16T13:35:16;3.90;99.90
16200;DHT22;8207;52.494;4.654;2022-12-16T13:38:02;3.90;99.90
16200;DHT22;8207;52.494;4.654;2022-12-16T13:40:49;3.90;99.90
16200;DHT22;8207;52.494;4.654;2022-12-16T13:43:47;3.80;99.90
16200;DHT22;8207;52.494;4.654;2022-12-16T13:46:40;3.80;99.90
16200;DHT22;8207;52.494;4.654;2022-12-16T13:49:46;3.80;99.90
16200;DHT22;8207;52.494;4.654;2022-12-16T13:52:43;3.80;99.90
16200;DHT22;8207;52.494;4.654;2022-12-16T13:55:32;3.80;99.90
16200;DHT22;8207;52.494;4.654;2022-12-16T13:58:25;3.80;99.90
16200;DHT22;8207;52.494;4.654;2022-12-16T14:01:17;3.70;99.90
16200;DHT22;8207;52.494;4.654;2022-12-16T14:04:08;3.70;99.90
16200;DHT22;8207;52.494;4.654;2022-12-16T14:06:58;3.70;99.90
16200;DHT22;8207;52.494;4.654;2022-12-16T14:09:47;3.60;99.90
16200;DHT22;8207;52.494;4.654;2022-12-16T14:12:57;3.60;99.90
16200;DHT22;8207;52.494;4.654;2022-12-16T14:15:53;3.70;99.90
16200;DHT22;8207;52.494;4.654;2022-12-16T14:18:48;3.60;99.90
16200;DHT22;8207;52.494;4.654;2022-12-16T14:21:40;3.60;99.90
16200;DHT22;8207;52.494;4.654;2022-12-16T14:24:29;3.60;99.90
16200;DHT22;8207;52.494;4.654;2022-12-16T14:27:15;3.50;99.90
16200;DHT22;8207;52.494;4.654;2022-12-16T14:30:02;3.50;99.90
16200;DHT22;8207;52.494;4.654;2022-12-16T15:59:17;1.00;99.90
16200;DHT22;8207;52.494;4.654;2022-12-16T16:02:05;0.90;99.90
16200;DHT22;8207;52.494;4.654;2022-12-16T16:04:53;0.80;99.90
16200;DHT22;8207;52.494;4.654;2022-12-16T16:07:37;0.70;99.90
16200;DHT22;8207;52.494;4.654;2022-12-16T16:10:23;0.70;99.90
16200;DHT22;8207;52.494;4.654;2022-12-16T16:13:09;0.60;99.90
16200;DHT22;8207;52.494;4.654;2022-12-16T16:15:55;0.50;99.90
16200;DHT22;8207;52.494;4.654;2022-12-16T16:18:40;0.40;99.90
16200;DHT22;8207;52.494;4.654;2022-12-16T16:21:25;0.40;99.90
16200;DHT22;8207;52.494;4.654;2022-12-16T16:24:10;0.30;99.90
16200;DHT22;8207;52.494;4.654;2022-12-16T16:26:54;0.30;99.90
16200;DHT22;8207;52.494;4.654;2022-12-16T16:29:38;0.20;99.90
16200;DHT22;8207;52.494;4.654;2022-12-16T16:32:24;0.10;99.90
16200;DHT22;8207;52.494;4.654;2022-12-16T16:35:08;0.10;99.90
16200;DHT22;8207;52.494;4.654;2022-12-16T16:37:53;0.00;99.90
16200;DHT22;8207;52.494;4.654;2022-12-16T16:40:39;0.00;99.90
16200;DHT22;8207;52.494;4.654;2022-12-16T16:43:25;0.00;99.90
16200;DHT22;8207;52.494;4.654;2022-12-16T16:46:29;-0.10;99.90
16200;DHT22;8207;52.494;4.654;2022-12-16T16:49:20;-0.10;99.90
16200;DHT22;8207;52.494;4.654;2022-12-16T16:52:07;-0.20;99.90
16200;DHT22;8207;52.494;4.654;2022-12-16T16:54:52;-0.20;99.90
16200;DHT22;8207;52.494;4.654;2022-12-16T16:57:37;-0.30;99.90
16200;DHT22;8207;52.494;4.654;2022-12-16T17:00:21;-0.30;99.90
16200;DHT22;8207;52.494;4.654;2022-12-16T17:03:05;-0.40;99.90
16200;DHT22;8207;52.494;4.654;2022-12-16T17:05:51;-0.40;99.90
16200;DHT22;8207;52.494;4.654;2022-12-16T17:08:36;-0.40;99.90
16200;DHT22;8207;52.494;4.654;2022-12-16T17:11:26;-0.50;99.90
16200;DHT22;8207;52.494;4.654;2022-12-16T17:14:12;-0.50;99.90
16200;DHT22;8207;52.494;4.654;2022-12-16T17:16:57;-0.60;99.90
16200;DHT22;8207;52.494;4.654;2022-12-16T17:19:47;-0.60;99.90
16200;DHT22;8207;52.494;4.654;2022-12-16T17:22:33;-0.60;99.90
16200;DHT22;8207;52.494;4.654;2022-12-16T17:25:18;-0.70;99.90
16200;DHT22;8207;52.494;4.654;2022-12-16T17:28:04;-0.70;99.90
16200;DHT22;8207;52.494;4.654;2022-12-16T17:30:48;-0.70;99.90
16200;DHT22;8207;52.494;4.654;2022-12-16T17:33:32;-0.70;99.90
16200;DHT22;8207;52.494;4.654;2022-12-16T17:36:17;-0.70;99.90
16200;DHT22;8207;52.494;4.654;2022-12-16T17:39:04;-0.80;99.90
16200;DHT22;8207;52.494;4.654;2022-12-16T17:41:48;-0.80;99.90
16200;DHT22;8207;52.494;4.654;2022-12-16T17:44:33;-0.80;99.90
16200;DHT22;8207;52.494;4.654;2022-12-16T17:47:17;-0.90;99.90
16200;DHT22;8207;52.494;4.654;2022-12-16T17:50:03;-0.90;99.90
16200;DHT22;8207;52.494;4.654;2022-12-16T17:52:52;-0.90;99.90
16200;DHT22;8207;52.494;4.654;2022-12-16T17:55:38;-0.90;99.90
16200;DHT22;8207;52.494;4.654;2022-12-16T17:58:29;-1.00;99.90
16200;DHT22;8207;52.494;4.654;2022-12-16T18:01:13;-1.00;99.90
16200;DHT22;8207;52.494;4.654;2022-12-16T18:03:57;-1.10;99.90
16200;DHT22;8207;52.494;4.654;2022-12-16T18:06:41;-1.10;99.90
16200;DHT22;8207;52.494;4.654;2022-12-16T18:09:25;-1.20;99.90
16200;DHT22;8207;52.494;4.654;2022-12-16T18:12:11;-1.20;99.90
16200;DHT22;8207;52.494;4.654;2022-12-16T18:14:55;-1.20;99.90
16200;DHT22;8207;52.494;4.654;2022-12-16T18:17:39;-1.30;99.90
16200;DHT22;8207;52.494;4.654;2022-12-16T18:20:24;-1.30;99.90
16200;DHT22;8207;52.494;4.654;2022-12-16T18:23:11;-1.30;99.90
16200;DHT22;8207;52.494;4.654;2022-12-16T18:25:59;-1.30;99.90
16200;DHT22;8207;52.494;4.654;2022-12-16T18:28:45;-1.30;99.90
16200;DHT22;8207;52.494;4.654;2022-12-16T18:31:29;-1.30;99.90
16200;DHT22;8207;52.494;4.654;2022-12-16T18:34:13;-1.30;99.90
16200;DHT22;8207;52.494;4.654;2022-12-16T18:36:57;-1.30;99.90
16200;DHT22;8207;52.494;4.654;2022-12-16T18:39:42;-1.30;99.90
16200;DHT22;8207;52.494;4.654;2022-12-16T18:42:26;-1.40;99.90
16200;DHT22;8207;52.494;4.654;2022-12-16T18:45:11;-1.40;99.90
16200;DHT22;8207;52.494;4.654;2022-12-16T18:47:55;-1.40;99.90
16200;DHT22;8207;52.494;4.654;2022-12-16T18:50:39;-1.40;99.90
16200;DHT22;8207;52.494;4.654;2022-12-16T18:53:24;-1.40;99.90
16200;DHT22;8207;52.494;4.654;2022-12-16T18:56:08;-1.40;99.90
16200;DHT22;8207;52.494;4.654;2022-12-16T18:58:53;-1.50;99.90
16200;DHT22;8207;52.494;4.654;2022-12-16T19:01:39;-1.50;99.90
16200;DHT22;8207;52.494;4.654;2022-12-16T19:04:24;-1.50;99.90
16200;DHT22;8207;52.494;4.654;2022-12-16T19:07:08;-1.60;99.90
16200;DHT22;8207;52.494;4.654;2022-12-16T19:09:52;-1.60;99.90